sensor_id;sensor_type;location;lat;lon;timestamp;pressure;altitude;pressure_sealevel;temperature;humidity
62697;BME280;48761;42.680;23.312;2023-04-01T00:02:19;93959.91;;;11.84;59.56
62697;BME280;48761;42.680;23.312;2023-04-01T00:04:45;93963.13;;;11.77;60.22
62697;BME280;48761;42.680;23.312;2023-04-01T00:07:11;93961.88;;;11.92;59.29
62697;BME280;48761;42.680;23.312;2023-04-01T00:09:37;93967.47;;;11.88;59.03
62697;BME280;48761;42.680;23.312;2023-04-01T00:12:03;93967.75;;;11.75;58.46
62697;BME280;48761;42.680;23.312;2023-04-01T00:14:29;93956.81;;;11.79;58.48
62697;BME280;48761;42.680;23.312;2023-04-01T00:16:56;93937.28;;;11.58;58.50
62697;BME280;48761;42.680;23.312;2023-04-01T00:19:22;93966.00;;;11.54;58.81
62697;BME280;48761;42.680;23.312;2023-04-01T00:21:48;93972.72;;;11.59;59.10
62697;BME280;48761;42.680;23.312;2023-04-01T00:24:14;93944.03;;;11.21;59.47
62697;BME280;48761;42.680;23.312;2023-04-01T00:26:40;93950.28;;;11.10;59.61
62697;BME280;48761;42.680;23.312;2023-04-01T00:29:05;93968.78;;;11.12;59.74
62697;BME280;48761;42.680;23.312;2023-04-01T00:31:31;93927.75;;;10.51;60.45
62697;BME280;48761;42.680;23.312;2023-04-01T00:33:57;93966.94;;;10.59;61.34
62697;BME280;48761;42.680;23.312;2023-04-01T00:36:23;93971.75;;;10.65;61.44
62697;BME280;48761;42.680;23.312;2023-04-01T00:38:49;93965.13;;;10.81;61.91
62697;BME280;48761;42.680;23.312;2023-04-01T00:41:16;93962.84;;;10.98;61.91
62697;BME280;48761;42.680;23.312;2023-04-01T00:43:44;93945.28;;;10.85;62.36
62697;BME280;48761;42.680;23.312;2023-04-01T00:46:11;93954.75;;;10.78;63.43
62697;BME280;48761;42.680;23.312;2023-04-01T00:48:40;93876.91;;;10.45;63.96
62697;BME280;48761;42.680;23.312;2023-04-01T00:51:09;93937.78;;;11.01;64.25
62697;BME280;48761;42.680;23.312;2023-04-01T00:53:47;93932.34;;;11.02;63.77
62697;BME280;48761;42.680;23.312;2023-04-01T00:56:23;93926.69;;;11.17;64.37
62697;BME280;48761;42.680;23.312;2023-04-01T00:58:58;93922.66;;;11.32;63.08
62697;BME280;48761;42.680;23.312;2023-04-01T01:01:25;93922.59;;;11.64;62.22
62697;BME280;48761;42.680;23.312;2023-04-01T01:03:52;93863.44;;;11.40;62.63
62697;BME280;48761;42.680;23.312;2023-04-01T01:06:42;93904.56;;;11.77;62.08
62697;BME280;48761;42.680;23.312;2023-04-01T01:12:02;93908.63;;;12.02;61.08
62697;BME280;48761;42.680;23.312;2023-04-01T01:14:40;93896.25;;;11.61;60.82
62697;BME280;48761;42.680;23.312;2023-04-01T01:17:16;93896.25;;;11.81;61.00
62697;BME280;48761;42.680;23.312;2023-04-01T01:22:39;93883.91;;;11.50;60.71
62697;BME280;48761;42.680;23.312;2023-04-01T01:25:18;93888.13;;;11.52;61.41
62697;BME280;48761;42.680;23.312;2023-04-01T01:28:08;93884.63;;;11.62;61.69
62697;BME280;48761;42.680;23.312;2023-04-01T01:33:34;93868.69;;;11.82;61.08
62697;BME280;48761;42.680;23.312;2023-04-01T01:36:04;93860.53;;;11.53;61.38
62697;BME280;48761;42.680;23.312;2023-04-01T01:38:34;93869.09;;;11.57;60.66
62697;BME280;48761;42.680;23.312;2023-04-01T01:41:01;93876.91;;;11.59;59.89
62697;BME280;48761;42.680;23.312;2023-04-01T01:43:35;93863.19;;;11.53;59.79
62697;BME280;48761;42.680;23.312;2023-04-01T01:46:07;93846.41;;;10.92;60.66
62697;BME280;48761;42.680;23.312;2023-04-01T01:48:36;93865.66;;;11.25;60.75
62697;BME280;48761;42.680;23.312;2023-04-01T01:51:05;93876.03;;;11.28;60.40
62697;BME280;48761;42.680;23.312;2023-04-01T01:53:31;93869.34;;;11.44;60.60
62697;BME280;48761;42.680;23.312;2023-04-01T01:55:57;93864.16;;;11.42;60.72
62697;BME280;48761;42.680;23.312;2023-04-01T01:58:39;93854.44;;;11.12;62.48
62697;BME280;48761;42.680;23.312;2023-04-01T02:01:25;93841.50;;;10.97;61.80
62697;BME280;48761;42.680;23.312;2023-04-01T02:03:53;93849.66;;;11.15;59.85
62697;BME280;48761;42.680;23.312;2023-04-01T02:06:26;93846.34;;;11.43;60.42
62697;BME280;48761;42.680;23.312;2023-04-01T02:11:27;93846.69;;;11.70;60.20
62697;BME280;48761;42.680;23.312;2023-04-01T02:14:03;93839.97;;;11.75;60.00
62697;BME280;48761;42.680;23.312;2023-04-01T02:16:59;93835.03;;;11.81;60.38
62697;BME280;48761;42.680;23.312;2023-04-01T02:19:32;93831.41;;;11.62;60.09
62697;BME280;48761;42.680;23.312;2023-04-01T02:22:01;93836.72;;;11.62;59.50
62697;BME280;48761;42.680;23.312;2023-04-01T02:24:30;93831.41;;;11.62;59.52
62697;BME280;48761;42.680;23.312;2023-04-01T02:26:57;93826.78;;;11.74;59.55
62697;BME280;48761;42.680;23.312;2023-04-01T02:29:24;93830.44;;;11.83;59.99
62697;BME280;48761;42.680;23.312;2023-04-01T02:31:51;93818.09;;;11.82;59.99
62697;BME280;48761;42.680;23.312;2023-04-01T02:34:19;93844.97;;;11.98;59.86
62697;BME280;48761;42.680;23.312;2023-04-01T02:36:45;93830.53;;;12.01;59.80
62697;BME280;48761;42.680;23.312;2023-04-01T02:39:13;93841.63;;;12.16;59.62
62697;BME280;48761;42.680;23.312;2023-04-01T02:41:43;93845.97;;;12.17;59.67
62697;BME280;48761;42.680;23.312;2023-04-01T02:44:12;93846.38;;;12.32;59.28
62697;BME280;48761;42.680;23.312;2023-04-01T02:46:38;93839.09;;;11.95;59.88
62697;BME280;48761;42.680;23.312;2023-04-01T02:49:05;93839.13;;;11.85;60.33
62697;BME280;48761;42.680;23.312;2023-04-01T02:51:32;93855.63;;;11.98;60.34
62697;BME280;48761;42.680;23.312;2023-04-01T02:53:58;93844.97;;;11.98;60.21
62697;BME280;48761;42.680;23.312;2023-04-01T02:56:24;93858.16;;;12.10;59.84
62697;BME280;48761;42.680;23.312;2023-04-01T02:58:49;93846.69;;;11.80;60.25
62697;BME280;48761;42.680;23.312;2023-04-01T03:01:15;93851.00;;;11.51;60.71
62697;BME280;48761;42.680;23.312;2023-04-01T03:03:41;93849.19;;;11.61;60.45
62697;BME280;48761;42.680;23.312;2023-04-01T03:06:13;93880.59;;;11.87;60.13
62697;BME280;48761;42.680;23.312;2023-04-01T03:08:40;93882.41;;;11.97;59.80
62697;BME280;48761;42.680;23.312;2023-04-01T03:11:06;93877.09;;;11.97;59.51
62697;BME280;48761;42.680;23.312;2023-04-01T03:13:32;93878.03;;;11.66;60.58
62697;BME280;48761;42.680;23.312;2023-04-01T03:15:58;93882.94;;;11.71;60.62
62697;BME280;48761;42.680;23.312;2023-04-01T03:18:24;93881.81;;;11.73;60.56
62697;BME280;48761;42.680;23.312;2023-04-01T03:20:50;93872.72;;;11.66;60.69
62697;BME280;48761;42.680;23.312;2023-04-01T03:23:16;93872.28;;;11.51;61.48
62697;BME280;48761;42.680;23.312;2023-04-01T03:25:42;93874.41;;;11.67;60.93
62697;BME280;48761;42.680;23.312;2023-04-01T03:28:08;93893.31;;;11.64;61.87
62697;BME280;48761;42.680;23.312;2023-04-01T03:30:34;93868.22;;;11.57;61.67
62697;BME280;48761;42.680;23.312;2023-04-01T03:33:00;93880.88;;;11.84;61.42
62697;BME280;48761;42.680;23.312;2023-04-01T03:35:27;93892.63;;;11.72;61.90
62697;BME280;48761;42.680;23.312;2023-04-01T03:37:53;93858.19;;;11.70;61.57
62697;BME280;48761;42.680;23.312;2023-04-01T03:40:20;93876.13;;;11.98;60.53
62697;BME280;48761;42.680;23.312;2023-04-01T03:42:46;93853.66;;;11.61;60.22
62697;BME280;48761;42.680;23.312;2023-04-01T03:45:13;93860.41;;;11.65;60.84
62697;BME280;48761;42.680;23.312;2023-04-01T03:47:39;93843.25;;;11.38;62.09
62697;BME280;48761;42.680;23.312;2023-04-01T03:50:06;93830.25;;;10.83;63.73
62697;BME280;48761;42.680;23.312;2023-04-01T03:52:32;93809.91;;;10.62;65.10
62697;BME280;48761;42.680;23.312;2023-04-01T03:54:58;93805.19;;;10.45;65.74
62697;BME280;48761;42.680;23.312;2023-04-01T03:57:25;93798.28;;;10.53;64.90
62697;BME280;48761;42.680;23.312;2023-04-01T03:59:50;93791.19;;;10.42;64.31
62697;BME280;48761;42.680;23.312;2023-04-01T04:02:16;93778.91;;;10.41;65.73
62697;BME280;48761;42.680;23.312;2023-04-01T04:04:42;93782.50;;;10.40;63.22
62697;BME280;48761;42.680;23.312;2023-04-01T04:07:08;93782.50;;;10.40;65.53
62697;BME280;48761;42.680;23.312;2023-04-01T04:09:34;93771.25;;;10.27;65.97
62697;BME280;48761;42.680;23.312;2023-04-01T04:12:00;93752.84;;;10.35;65.00
62697;BME280;48761;42.680;23.312;2023-04-01T04:14:26;93743.66;;;10.49;63.33
62697;BME280;48761;42.680;23.312;2023-04-01T04:16:52;93751.06;;;10.46;62.45
62697;BME280;48761;42.680;23.312;2023-04-01T04:19:18;93755.63;;;10.24;64.29
62697;BME280;48761;42.680;23.312;2023-04-01T04:21:44;93749.97;;;10.17;64.24
62697;BME280;48761;42.680;23.312;2023-04-01T04:24:10;93746.06;;;10.11;63.67
62697;BME280;48761;42.680;23.312;2023-04-01T04:26:36;93747.19;;;10.18;64.84
62697;BME280;48761;42.680;23.312;2023-04-01T04:29:02;93731.72;;;10.24;64.76
62697;BME280;48761;42.680;23.312;2023-04-01T04:31:28;93717.44;;;10.25;61.54
62697;BME280;48761;42.680;23.312;2023-04-01T04:33:54;93731.47;;;10.37;61.94
62697;BME280;48761;42.680;23.312;2023-04-01T04:36:21;93732.84;;;10.62;61.94
62697;BME280;48761;42.680;23.312;2023-04-01T04:38:47;93733.84;;;10.71;61.21
62697;BME280;48761;42.680;23.312;2023-04-01T04:41:15;93688.50;;;10.63;61.36
62697;BME280;48761;42.680;23.312;2023-04-01T04:43:42;93743.69;;;11.10;61.29
62697;BME280;48761;42.680;23.312;2023-04-01T04:46:09;93727.06;;;11.18;60.93
62697;BME280;48761;42.680;23.312;2023-04-01T04:48:35;93712.03;;;10.87;61.50
62697;BME280;48761;42.680;23.312;2023-04-01T04:51:01;93697.84;;;10.57;61.67
62697;BME280;48761;42.680;23.312;2023-04-01T04:53:27;93705.34;;;10.42;62.58
62697;BME280;48761;42.680;23.312;2023-04-01T04:55:53;93707.28;;;10.71;62.02
62697;BME280;48761;42.680;23.312;2023-04-01T04:58:19;93719.75;;;10.91;61.58
62697;BME280;48761;42.680;23.312;2023-04-01T05:00:45;93720.47;;;11.13;61.04
62697;BME280;48761;42.680;23.312;2023-04-01T05:03:12;93702.47;;;10.55;62.30
62697;BME280;48761;42.680;23.312;2023-04-01T05:05:39;93687.41;;;10.34;60.90
62697;BME280;48761;42.680;23.312;2023-04-01T05:08:05;93698.22;;;10.42;60.45
62697;BME280;48761;42.680;23.312;2023-04-01T05:10:31;93670.06;;;10.61;60.21
62697;BME280;48761;42.680;23.312;2023-04-01T05:12:58;93696.81;;;11.09;60.20
62697;BME280;48761;42.680;23.312;2023-04-01T05:15:24;93678.88;;;10.72;60.39
62697;BME280;48761;42.680;23.312;2023-04-01T05:17:50;93693.75;;;11.04;59.25
62697;BME280;48761;42.680;23.312;2023-04-01T05:20:16;93671.88;;;11.20;59.17
62697;BME280;48761;42.680;23.312;2023-04-01T05:22:43;93655.78;;;10.82;60.15
62697;BME280;48761;42.680;23.312;2023-04-01T05:25:09;93666.44;;;11.02;59.67
62697;BME280;48761;42.680;23.312;2023-04-01T05:27:35;93651.47;;;10.81;60.09
62697;BME280;48761;42.680;23.312;2023-04-01T05:30:01;93657.34;;;11.15;59.46
62697;BME280;48761;42.680;23.312;2023-04-01T05:32:27;93677.47;;;11.47;59.16
62697;BME280;48761;42.680;23.312;2023-04-01T05:34:53;93674.25;;;12.02;59.00
62697;BME280;48761;42.680;23.312;2023-04-01T05:37:19;93654.13;;;11.89;57.49
62697;BME280;48761;42.680;23.312;2023-04-01T05:39:45;93657.03;;;12.06;57.29
62697;BME280;48761;42.680;23.312;2023-04-01T05:42:11;93653.59;;;12.52;56.75
62697;BME280;48761;42.680;23.312;2023-04-01T05:44:37;93666.69;;;13.73;54.56
62697;BME280;48761;42.680;23.312;2023-04-01T05:47:04;93653.91;;;13.59;52.42
62697;BME280;48761;42.680;23.312;2023-04-01T05:49:30;93650.44;;;13.40;51.96
62697;BME280;48761;42.680;23.312;2023-04-01T05:51:56;93662.66;;;13.51;51.53
62697;BME280;48761;42.680;23.312;2023-04-01T05:54:23;93657.97;;;14.25;50.40
62697;BME280;48761;42.680;23.312;2023-04-01T05:56:49;93658.28;;;13.86;50.16
62697;BME280;48761;42.680;23.312;2023-04-01T05:59:15;93650.81;;;14.33;48.86
62697;BME280;48761;42.680;23.312;2023-04-01T06:01:41;93648.00;;;14.35;48.77
62697;BME280;48761;42.680;23.312;2023-04-01T06:04:15;93621.00;;;14.11;49.12
62697;BME280;48761;42.680;23.312;2023-04-01T06:06:41;93639.75;;;14.63;47.71
62697;BME280;48761;42.680;23.312;2023-04-01T06:09:37;93650.63;;;14.27;47.55
62697;BME280;48761;42.680;23.312;2023-04-01T06:26:30;93651.50;;;13.74;49.72
62697;BME280;48761;42.680;23.312;2023-04-01T06:29:18;93650.66;;;13.73;48.42
62697;BME280;48761;42.680;23.312;2023-04-01T06:31:55;93636.81;;;13.25;49.23
62697;BME280;48761;42.680;23.312;2023-04-01T06:45:52;93572.50;;;12.91;50.84
62697;BME280;48761;42.680;23.312;2023-04-01T06:56:36;93599.00;;;12.56;53.77
62697;BME280;48761;42.680;23.312;2023-04-01T06:59:25;93593.28;;;12.51;54.16
62697;BME280;48761;42.680;23.312;2023-04-01T07:01:55;93598.25;;;12.64;54.03
62697;BME280;48761;42.680;23.312;2023-04-01T07:04:33;93575.81;;;12.20;55.28
62697;BME280;48761;42.680;23.312;2023-04-01T07:07:40;93613.53;;;12.43;55.36
62697;BME280;48761;42.680;23.312;2023-04-01T07:10:14;93604.47;;;12.54;55.26
62697;BME280;48761;42.680;23.312;2023-04-01T07:12:55;93596.34;;;12.56;55.35
62697;BME280;48761;42.680;23.312;2023-04-01T07:15:40;93592.38;;;12.60;55.66
62697;BME280;48761;42.680;23.312;2023-04-01T07:18:19;93578.59;;;12.83;55.34
62697;BME280;48761;42.680;23.312;2023-04-01T07:20:48;93590.09;;;12.84;55.25
62697;BME280;48761;42.680;23.312;2023-04-01T07:23:24;93594.50;;;12.75;55.81
62697;BME280;48761;42.680;23.312;2023-04-01T07:25:55;93589.25;;;12.83;55.87
62697;BME280;48761;42.680;23.312;2023-04-01T07:28:29;93580.63;;;12.89;55.83
62697;BME280;48761;42.680;23.312;2023-04-01T07:34:13;93601.88;;;13.18;56.08
62697;BME280;48761;42.680;23.312;2023-04-01T07:36:45;93628.16;;;13.13;55.97
62697;BME280;48761;42.680;23.312;2023-04-01T07:39:32;93600.91;;;13.19;55.95
62697;BME280;48761;42.680;23.312;2023-04-01T07:44:57;93563.53;;;13.19;55.93
62697;BME280;48761;42.680;23.312;2023-04-01T07:47:35;93590.34;;;13.36;55.85
62697;BME280;48761;42.680;23.312;2023-04-01T08:00:59;93580.09;;;13.49;55.58
62697;BME280;48761;42.680;23.312;2023-04-01T08:09:04;93572.38;;;13.64;55.07
62697;BME280;48761;42.680;23.312;2023-04-01T08:14:31;93556.94;;;13.85;54.56
62697;BME280;48761;42.680;23.312;2023-04-01T08:25:02;93543.47;;;14.03;54.23
62697;BME280;48761;42.680;23.312;2023-04-01T08:27:48;93524.81;;;14.11;53.33
62697;BME280;48761;42.680;23.312;2023-04-01T08:30:24;93527.66;;;14.10;53.66
62697;BME280;48761;42.680;23.312;2023-04-01T08:35:34;93497.53;;;14.85;52.58
62697;BME280;48761;42.680;23.312;2023-04-01T08:38:27;93472.41;;;15.36;51.16
62697;BME280;48761;42.680;23.312;2023-04-01T08:41:05;93482.84;;;15.63;49.99
62697;BME280;48761;42.680;23.312;2023-04-01T08:46:49;93464.31;;;16.57;48.19
62697;BME280;48761;42.680;23.312;2023-04-01T08:54:48;93458.22;;;17.25;45.67
62697;BME280;48761;42.680;23.312;2023-04-01T09:03:22;93462.97;;;17.69;43.91
62697;BME280;48761;42.680;23.312;2023-04-01T09:17:11;93460.56;;;17.05;42.39
62697;BME280;48761;42.680;23.312;2023-04-01T09:23:10;93451.00;;;16.87;42.96
62697;BME280;48761;42.680;23.312;2023-04-01T09:34:53;93433.84;;;16.73;42.75
62697;BME280;48761;42.680;23.312;2023-04-01T09:45:41;93416.91;;;16.73;42.04
62697;BME280;48761;42.680;23.312;2023-04-01T09:48:19;93395.72;;;16.63;42.34
62697;BME280;48761;42.680;23.312;2023-04-01T09:54:17;93382.34;;;16.78;41.82
62697;BME280;48761;42.680;23.312;2023-04-01T10:16:47;93371.03;;;16.67;41.79
62697;BME280;48761;42.680;23.312;2023-04-01T10:27:42;93349.25;;;16.47;42.23
62697;BME280;48761;42.680;23.312;2023-04-01T10:33:38;93372.28;;;16.18;43.42
62697;BME280;48761;42.680;23.312;2023-04-01T10:42:38;93331.63;;;15.82;44.71
62697;BME280;48761;42.680;23.312;2023-04-01T10:51:08;93327.53;;;15.63;45.77
62697;BME280;48761;42.680;23.312;2023-04-01T10:56:46;93309.88;;;15.45;46.73
62697;BME280;48761;42.680;23.312;2023-04-01T10:59:25;93314.91;;;15.48;45.99
62697;BME280;48761;42.680;23.312;2023-04-01T11:07:54;93291.03;;;15.38;47.16
62697;BME280;48761;42.680;23.312;2023-04-01T11:25:25;93323.75;;;15.80;45.75
62697;BME280;48761;42.680;23.312;2023-04-01T11:28:16;93325.66;;;15.95;45.75
62697;BME280;48761;42.680;23.312;2023-04-01T11:34:02;93360.78;;;16.00;43.64
62697;BME280;48761;42.680;23.312;2023-04-01T11:36:43;93398.28;;;16.00;45.04
62697;BME280;48761;42.680;23.312;2023-04-01T11:44:39;93456.81;;;15.40;53.49
62697;BME280;48761;42.680;23.312;2023-04-01T11:47:45;93482.31;;;15.02;56.78
62697;BME280;48761;42.680;23.312;2023-04-01T11:59:01;93560.19;;;13.43;70.27
62697;BME280;48761;42.680;23.312;2023-04-01T12:07:11;93556.63;;;12.89;72.22
62697;BME280;48761;42.680;23.312;2023-04-01T12:10:02;93548.41;;;12.83;73.79
62697;BME280;48761;42.680;23.312;2023-04-01T12:12:46;93541.19;;;12.75;75.02
62697;BME280;48761;42.680;23.312;2023-04-01T12:20:50;93544.72;;;13.47;75.18
62697;BME280;48761;42.680;23.312;2023-04-01T12:26:29;93547.34;;;14.09;74.62
62697;BME280;48761;42.680;23.312;2023-04-01T12:29:18;93541.16;;;14.08;74.35
62697;BME280;48761;42.680;23.312;2023-04-01T12:46:16;93536.34;;;12.97;77.32
62697;BME280;48761;42.680;23.312;2023-04-01T12:52:01;93542.91;;;12.84;79.46
62697;BME280;48761;42.680;23.312;2023-04-01T13:11:20;93481.63;;;13.11;76.67
62697;BME280;48761;42.680;23.312;2023-04-01T13:16:51;93459.66;;;12.91;78.11
62697;BME280;48761;42.680;23.312;2023-04-01T13:19:50;93452.72;;;12.53;79.72
62697;BME280;48761;42.680;23.312;2023-04-01T13:28:10;93434.13;;;12.88;79.99
62697;BME280;48761;42.680;23.312;2023-04-01T13:31:14;93462.16;;;13.19;77.82
62697;BME280;48761;42.680;23.312;2023-04-01T13:34:15;93447.41;;;13.06;78.30
62697;BME280;48761;42.680;23.312;2023-04-01T13:42:26;93420.09;;;13.91;71.59
62697;BME280;48761;42.680;23.312;2023-04-01T13:45:08;93411.72;;;13.77;70.68
62697;BME280;48761;42.680;23.312;2023-04-01T13:53:21;93410.94;;;14.77;67.03
62697;BME280;48761;42.680;23.312;2023-04-01T14:11:03;93383.38;;;14.27;63.33
62697;BME280;48761;42.680;23.312;2023-04-01T14:13:40;93382.56;;;14.43;63.06
62697;BME280;48761;42.680;23.312;2023-04-01T14:28:39;93350.31;;;15.27;51.91
62697;BME280;48761;42.680;23.312;2023-04-01T14:40:22;93312.34;;;15.23;51.57
62697;BME280;48761;42.680;23.312;2023-04-01T14:43:33;93347.13;;;15.31;49.74
62697;BME280;48761;42.680;23.312;2023-04-01T14:49:14;93343.38;;;15.41;53.39
62697;BME280;48761;42.680;23.312;2023-04-01T14:51:41;93365.13;;;14.97;58.62
62697;BME280;48761;42.680;23.312;2023-04-01T14:56:49;93343.31;;;14.18;61.83
62697;BME280;48761;42.680;23.312;2023-04-01T15:15:30;93373.38;;;13.43;66.75
62697;BME280;48761;42.680;23.312;2023-04-01T15:18:09;93353.97;;;13.25;67.17
62697;BME280;48761;42.680;23.312;2023-04-01T15:31:58;93372.41;;;13.09;68.54
62697;BME280;48761;42.680;23.312;2023-04-01T15:50:46;93566.88;;;12.76;64.66
62697;BME280;48761;42.680;23.312;2023-04-01T16:01:51;93620.19;;;11.43;70.67
62697;BME280;48761;42.680;23.312;2023-04-01T16:10:16;93637.28;;;10.00;78.58
62697;BME280;48761;42.680;23.312;2023-04-01T16:16:38;93634.09;;;10.06;80.18
62697;BME280;48761;42.680;23.312;2023-04-01T16:19:27;93644.59;;;10.17;79.34
62697;BME280;48761;42.680;23.312;2023-04-01T16:22:23;93650.38;;;9.91;79.84
62697;BME280;48761;42.680;23.312;2023-04-01T16:24:53;93668.13;;;10.42;78.23
62697;BME280;48761;42.680;23.312;2023-04-01T16:30:45;93662.78;;;10.22;77.58
62697;BME280;48761;42.680;23.312;2023-04-01T16:33:24;93671.22;;;10.37;77.31
62697;BME280;48761;42.680;23.312;2023-04-01T16:38:52;93679.34;;;10.46;76.13
62697;BME280;48761;42.680;23.312;2023-04-01T16:41:26;93687.38;;;10.24;76.45
62697;BME280;48761;42.680;23.312;2023-04-01T16:43:59;93682.38;;;10.31;76.18
62697;BME280;48761;42.680;23.312;2023-04-01T16:46:39;93684.31;;;10.29;76.58
62697;BME280;48761;42.680;23.312;2023-04-01T16:49:32;93689.03;;;10.15;75.29
62697;BME280;48761;42.680;23.312;2023-04-01T16:52:15;93700.00;;;10.32;74.83
62697;BME280;48761;42.680;23.312;2023-04-01T16:54:55;93700.16;;;10.40;74.64
62697;BME280;48761;42.680;23.312;2023-04-01T17:00:30;93700.34;;;10.49;74.98
62697;BME280;48761;42.680;23.312;2023-04-01T17:11:19;93713.97;;;10.34;73.25
62697;BME280;48761;42.680;23.312;2023-04-01T17:16:54;93698.50;;;9.77;73.74
62697;BME280;48761;42.680;23.312;2023-04-01T17:22:25;93724.81;;;9.68;74.81
62697;BME280;48761;42.680;23.312;2023-04-01T17:30:22;93739.59;;;9.61;74.48
62697;BME280;48761;42.680;23.312;2023-04-01T17:44:44;93728.72;;;9.64;73.52
62697;BME280;48761;42.680;23.312;2023-04-01T17:50:18;93745.09;;;9.48;74.29
62697;BME280;48761;42.680;23.312;2023-04-01T17:53:14;93743.47;;;9.57;73.34
62697;BME280;48761;42.680;23.312;2023-04-01T18:03:56;93793.44;;;9.18;74.39
62697;BME280;48761;42.680;23.312;2023-04-01T18:23:58;93817.59;;;9.37;73.62
62697;BME280;48761;42.680;23.312;2023-04-01T18:26:29;93808.38;;;9.52;72.90
62697;BME280;48761;42.680;23.312;2023-04-01T18:29:11;93823.59;;;9.72;72.42
62697;BME280;48761;42.680;23.312;2023-04-01T18:31:43;93807.44;;;9.96;71.92
62697;BME280;48761;42.680;23.312;2023-04-01T18:39:59;93781.91;;;9.41;72.07
62697;BME280;48761;42.680;23.312;2023-04-01T18:42:57;93810.44;;;9.49;72.07
62697;BME280;48761;42.680;23.312;2023-04-01T18:45:35;93816.56;;;9.16;73.15
62697;BME280;48761;42.680;23.312;2023-04-01T18:48:38;93810.34;;;9.39;72.79
62697;BME280;48761;42.680;23.312;2023-04-01T18:51:13;93795.88;;;9.43;71.97
62697;BME280;48761;42.680;23.312;2023-04-01T18:53:48;93798.72;;;9.51;72.10
62697;BME280;48761;42.680;23.312;2023-04-01T18:56:38;93801.34;;;9.63;71.08
62697;BME280;48761;42.680;23.312;2023-04-01T18:59:27;93818.78;;;9.44;71.94
62697;BME280;48761;42.680;23.312;2023-04-01T19:05:05;93825.94;;;9.65;71.20
62697;BME280;48761;42.680;23.312;2023-04-01T19:10:23;93834.41;;;9.14;72.09
62697;BME280;48761;42.680;23.312;2023-04-01T19:15:49;93848.47;;;9.38;71.78
62697;BME280;48761;42.680;23.312;2023-04-01T19:32:30;93866.66;;;9.75;68.32
62697;BME280;48761;42.680;23.312;2023-04-01T19:35:17;93870.50;;;9.83;67.66
62697;BME280;48761;42.680;23.312;2023-04-01T19:37:51;93875.09;;;9.81;67.12
62697;BME280;48761;42.680;23.312;2023-04-01T19:43:32;93884.81;;;9.59;67.95
62697;BME280;48761;42.680;23.312;2023-04-01T19:51:52;93880.19;;;9.72;67.09
62697;BME280;48761;42.680;23.312;2023-04-01T19:57:25;93898.31;;;9.56;66.91
62697;BME280;48761;42.680;23.312;2023-04-01T20:00:15;93888.94;;;9.84;66.36
62697;BME280;48761;42.680;23.312;2023-04-01T20:03:03;93892.94;;;9.79;66.72
62697;BME280;48761;42.680;23.312;2023-04-01T20:11:17;93881.13;;;9.83;66.37
62697;BME280;48761;42.680;23.312;2023-04-01T20:19:11;93865.09;;;9.73;65.18
62697;BME280;48761;42.680;23.312;2023-04-01T20:21:58;93867.13;;;9.81;64.85
62697;BME280;48761;42.680;23.312;2023-04-01T20:24:36;93881.75;;;9.75;65.10
62697;BME280;48761;42.680;23.312;2023-04-01T20:35:22;93892.06;;;9.90;63.34
62697;BME280;48761;42.680;23.312;2023-04-01T20:38:05;93902.59;;;9.80;63.50
62697;BME280;48761;42.680;23.312;2023-04-01T20:40:41;93906.63;;;9.95;63.36
62697;BME280;48761;42.680;23.312;2023-04-01T20:46:43;93907.19;;;9.78;62.62
62697;BME280;48761;42.680;23.312;2023-04-01T20:49:23;93908.13;;;9.88;62.38
62697;BME280;48761;42.680;23.312;2023-04-01T20:54:47;93902.25;;;10.06;61.75
62697;BME280;48761;42.680;23.312;2023-04-01T21:08:46;93909.84;;;9.22;63.18
62697;BME280;48761;42.680;23.312;2023-04-01T21:14:05;93918.81;;;9.53;62.12
62697;BME280;48761;42.680;23.312;2023-04-01T21:20:12;93924.41;;;9.50;61.82
62697;BME280;48761;42.680;23.312;2023-04-01T21:28:18;93923.19;;;9.43;62.98
62697;BME280;48761;42.680;23.312;2023-04-01T21:31:08;93922.03;;;9.24;63.56
62697;BME280;48761;42.680;23.312;2023-04-01T21:34:11;93922.75;;;9.38;63.57
62697;BME280;48761;42.680;23.312;2023-04-01T21:36:51;93927.78;;;9.41;63.44
62697;BME280;48761;42.680;23.312;2023-04-01T21:39:44;93927.66;;;9.43;63.58
62697;BME280;48761;42.680;23.312;2023-04-01T21:45:21;93930.69;;;9.38;63.08
62697;BME280;48761;42.680;23.312;2023-04-01T22:07:55;93929.47;;;9.30;63.20
62697;BME280;48761;42.680;23.312;2023-04-01T22:13:11;93913.31;;;9.45;63.00
62697;BME280;48761;42.680;23.312;2023-04-01T22:18:15;93924.63;;;9.47;63.27
62697;BME280;48761;42.680;23.312;2023-04-01T22:20:54;93914.16;;;9.34;63.46
62697;BME280;48761;42.680;23.312;2023-04-01T22:23:57;93913.41;;;9.44;63.33
62697;BME280;48761;42.680;23.312;2023-04-01T22:29:47;93908.03;;;9.11;62.61
62697;BME280;48761;42.680;23.312;2023-04-01T22:37:46;93922.50;;;9.29;62.18
62697;BME280;48761;42.680;23.312;2023-04-01T22:40:27;93905.16;;;9.14;62.10
62697;BME280;48761;42.680;23.312;2023-04-01T22:43:06;93918.66;;;9.22;61.88
62697;BME280;48761;42.680;23.312;2023-04-01T22:48:14;93931.19;;;9.20;61.54
62697;BME280;48761;42.680;23.312;2023-04-01T22:50:57;93941.78;;;9.32;60.96
62697;BME280;48761;42.680;23.312;2023-04-01T22:56:01;93939.16;;;9.20;61.03
62697;BME280;48761;42.680;23.312;2023-04-01T22:58:35;93939.88;;;9.22;60.45
62697;BME280;48761;42.680;23.312;2023-04-01T23:01:17;93950.97;;;9.04;60.80
62697;BME280;48761;42.680;23.312;2023-04-01T23:03:46;93947.81;;;9.22;60.49
62697;BME280;48761;42.680;23.312;2023-04-01T23:06:26;93951.94;;;9.15;60.54
62697;BME280;48761;42.680;23.312;2023-04-01T23:09:08;93939.63;;;9.14;60.45
62697;BME280;48761;42.680;23.312;2023-04-01T23:19:29;93932.59;;;9.36;59.90
62697;BME280;48761;42.680;23.312;2023-04-01T23:24:41;93935.16;;;9.14;59.84
62697;BME280;48761;42.680;23.312;2023-04-01T23:29:53;93933.59;;;9.12;59.98